Aeroporto :
LOGIN :

Iscrizione | Disclaimer

   EN    FR    IT 

 










Sommario :    VFR   VFR Marginale   IFR   IFR Intensivo   IFR Molto Intensivo
Visibilità : 
Base nubi : 
>= 8 km
>= 3000ft
5 / 8 km
1000 / 3000 ft
1500m / 5 km
500 / 1000 ft
800 / 1500m
200 / 500 ft
< 800m
< 200 ft
Simboli :   Temporali  Nebbia  Neve Forte  Precipitazioni Forti  Vento > 20 kt
SIGMETs :   Varie  Temporali  Ghiacco  Turbolenza  Onda orograficha  Ceneri Vulcaniche







- Altitudine del aeroporto : 119 ft
- Codice IATA : WAT


EIWF - Waterford

ULTIMO METAR :
  • 221900Z 24008KT 210V270 CAVOK ///// Q1018

METARs OBSOLETI :
  • 221830Z 25008KT 220V290 CAVOK ///// Q1018
  • 221800Z 25010KT 200V280 9999 FEW045 ///// Q1018
  • 221730Z 24011KT 210V280 9999 FEW045 ///// Q1019
  • 221700Z 24011KT 210V280 CAVOK ///// Q1019
  • 221630Z 24011KT 220V280 CAVOK ///// Q1019

TAF TAF EIWF
Valido dal 22 a 18 ore il 23 a 03 ore UTC


221700Z 2218/2303 24011KT 9999 FEW040
ATIS : +353 51 877 000
Nessun NOTAM noto per questo aeroporto.



MetMap, La meteo Aeronautica in un colpo d'occhio ! - Copyright ORBIFLY Dicembre 2007 - Disclaimer

ORBIFLY MET'MAP TEAM :

Programmazione e sviluppo : Alexandra Zaïnal
Concezione e sviluppo : Baudouin d'Aumeries
Co-Programmazione e sviluppo : Marc-Olivier Méhu
Supporto tecnico e logistico : Manuel Goepfert
Aiuto per la traduzione : Arnaldo La Scala

Contatto : metmap@orbifly.com




FONTI E CREDITI :

   NOAA